sensor_id;sensor_type;location;lat;lon;timestamp;P1;durP1;ratioP1;P2;durP2;ratioP2
71303;SDS011;59091;47.446;19.148;2022-12-18T00:00:59;49.22;;;17.45;;
71303;SDS011;59091;47.446;19.148;2022-12-18T00:03:24;44.10;;;16.42;;
71303;SDS011;59091;47.446;19.148;2022-12-18T00:05:51;47.38;;;17.98;;
71303;SDS011;59091;47.446;19.148;2022-12-18T00:08:17;49.47;;;17.75;;
71303;SDS011;59091;47.446;19.148;2022-12-18T00:10:43;37.42;;;16.73;;
71303;SDS011;59091;47.446;19.148;2022-12-18T00:13:09;44.75;;;16.83;;
71303;SDS011;59091;47.446;19.148;2022-12-18T00:15:36;48.13;;;18.13;;
71303;SDS011;59091;47.446;19.148;2022-12-18T00:18:02;37.58;;;16.45;;
71303;SDS011;59091;47.446;19.148;2022-12-18T00:20:27;44.53;;;17.17;;
71303;SDS011;59091;47.446;19.148;2022-12-18T00:22:53;46.55;;;16.55;;
71303;SDS011;59091;47.446;19.148;2022-12-18T00:25:19;43.53;;;16.85;;
71303;SDS011;59091;47.446;19.148;2022-12-18T00:27:44;38.38;;;15.90;;
71303;SDS011;59091;47.446;19.148;2022-12-18T00:30:10;43.90;;;17.58;;
71303;SDS011;59091;47.446;19.148;2022-12-18T00:32:36;36.13;;;16.40;;
71303;SDS011;59091;47.446;19.148;2022-12-18T00:35:02;41.75;;;16.30;;
71303;SDS011;59091;47.446;19.148;2022-12-18T00:37:28;32.13;;;12.18;;
71303;SDS011;59091;47.446;19.148;2022-12-18T00:39:53;48.75;;;17.65;;
71303;SDS011;59091;47.446;19.148;2022-12-18T00:42:18;47.78;;;16.90;;
71303;SDS011;59091;47.446;19.148;2022-12-18T00:45:02;40.30;;;16.23;;
71303;SDS011;59091;47.446;19.148;2022-12-18T00:47:28;43.38;;;16.15;;
71303;SDS011;59091;47.446;19.148;2022-12-18T00:49:53;37.30;;;15.60;;
71303;SDS011;59091;47.446;19.148;2022-12-18T00:52:19;38.03;;;16.50;;
71303;SDS011;59091;47.446;19.148;2022-12-18T00:54:44;43.55;;;17.25;;
71303;SDS011;59091;47.446;19.148;2022-12-18T00:57:09;40.13;;;16.38;;
71303;SDS011;59091;47.446;19.148;2022-12-18T00:59:35;46.15;;;16.50;;
71303;SDS011;59091;47.446;19.148;2022-12-18T01:02:00;41.33;;;16.40;;
71303;SDS011;59091;47.446;19.148;2022-12-18T01:04:26;45.70;;;16.83;;
71303;SDS011;59091;47.446;19.148;2022-12-18T01:06:51;43.17;;;17.38;;
71303;SDS011;59091;47.446;19.148;2022-12-18T01:09:16;38.78;;;16.15;;
71303;SDS011;59091;47.446;19.148;2022-12-18T01:11:42;40.85;;;16.63;;
71303;SDS011;59091;47.446;19.148;2022-12-18T01:14:07;38.53;;;15.32;;
71303;SDS011;59091;47.446;19.148;2022-12-18T01:16:33;46.58;;;16.08;;
71303;SDS011;59091;47.446;19.148;2022-12-18T01:18:59;39.25;;;16.55;;
71303;SDS011;59091;47.446;19.148;2022-12-18T01:21:24;39.85;;;15.75;;
71303;SDS011;59091;47.446;19.148;2022-12-18T01:23:54;43.13;;;15.70;;
71303;SDS011;59091;47.446;19.148;2022-12-18T01:26:20;42.15;;;16.95;;
71303;SDS011;59091;47.446;19.148;2022-12-18T01:28:46;39.92;;;16.95;;
71303;SDS011;59091;47.446;19.148;2022-12-18T01:31:12;36.60;;;15.13;;
71303;SDS011;59091;47.446;19.148;2022-12-18T01:33:43;37.83;;;15.90;;
71303;SDS011;59091;47.446;19.148;2022-12-18T01:36:14;36.90;;;16.23;;
71303;SDS011;59091;47.446;19.148;2022-12-18T01:38:49;38.45;;;16.50;;
71303;SDS011;59091;47.446;19.148;2022-12-18T01:41:17;41.08;;;15.35;;
71303;SDS011;59091;47.446;19.148;2022-12-18T01:43:46;42.08;;;16.65;;
71303;SDS011;59091;47.446;19.148;2022-12-18T01:46:14;41.60;;;16.58;;
71303;SDS011;59091;47.446;19.148;2022-12-18T01:48:41;38.92;;;15.82;;
71303;SDS011;59091;47.446;19.148;2022-12-18T01:51:08;41.67;;;16.90;;
71303;SDS011;59091;47.446;19.148;2022-12-18T01:53:35;37.83;;;15.85;;
71303;SDS011;59091;47.446;19.148;2022-12-18T01:56:02;43.65;;;16.85;;
71303;SDS011;59091;47.446;19.148;2022-12-18T01:58:39;44.28;;;15.50;;
71303;SDS011;59091;47.446;19.148;2022-12-18T02:01:11;37.90;;;15.82;;
71303;SDS011;59091;47.446;19.148;2022-12-18T02:03:37;37.65;;;15.95;;
71303;SDS011;59091;47.446;19.148;2022-12-18T02:06:07;39.65;;;15.15;;
71303;SDS011;59091;47.446;19.148;2022-12-18T02:27:46;36.17;;;16.15;;
71303;SDS011;59091;47.446;19.148;2022-12-18T02:30:14;43.83;;;16.33;;
71303;SDS011;59091;47.446;19.148;2022-12-18T02:32:42;42.20;;;14.20;;
71303;SDS011;59091;47.446;19.148;2022-12-18T02:35:13;37.42;;;15.68;;
71303;SDS011;59091;47.446;19.148;2022-12-18T02:37:42;38.03;;;15.80;;
71303;SDS011;59091;47.446;19.148;2022-12-18T02:40:10;42.60;;;17.48;;
71303;SDS011;59091;47.446;19.148;2022-12-18T02:42:37;34.50;;;16.83;;
71303;SDS011;59091;47.446;19.148;2022-12-18T02:45:03;43.53;;;15.77;;
71303;SDS011;59091;47.446;19.148;2022-12-18T02:47:29;39.22;;;16.23;;
71303;SDS011;59091;47.446;19.148;2022-12-18T02:57:36;46.50;;;17.20;;
71303;SDS011;59091;47.446;19.148;2022-12-18T03:00:17;40.85;;;16.98;;
71303;SDS011;59091;47.446;19.148;2022-12-18T03:02:48;40.45;;;14.85;;
71303;SDS011;59091;47.446;19.148;2022-12-18T03:05:24;38.88;;;16.05;;
71303;SDS011;59091;47.446;19.148;2022-12-18T03:08:13;43.08;;;16.20;;
71303;SDS011;59091;47.446;19.148;2022-12-18T03:10:44;42.97;;;17.98;;
71303;SDS011;59091;47.446;19.148;2022-12-18T03:13:15;41.78;;;17.63;;
71303;SDS011;59091;47.446;19.148;2022-12-18T03:15:47;46.13;;;15.77;;
71303;SDS011;59091;47.446;19.148;2022-12-18T03:18:18;42.60;;;17.20;;
71303;SDS011;59091;47.446;19.148;2022-12-18T03:20:49;38.95;;;16.63;;
71303;SDS011;59091;47.446;19.148;2022-12-18T03:23:19;45.72;;;16.48;;
71303;SDS011;59091;47.446;19.148;2022-12-18T03:25:47;45.22;;;17.45;;
71303;SDS011;59091;47.446;19.148;2022-12-18T03:28:18;40.22;;;17.25;;
71303;SDS011;59091;47.446;19.148;2022-12-18T03:30:47;43.10;;;17.33;;
71303;SDS011;59091;47.446;19.148;2022-12-18T03:33:16;45.10;;;17.50;;
71303;SDS011;59091;47.446;19.148;2022-12-18T03:35:45;39.15;;;17.40;;
71303;SDS011;59091;47.446;19.148;2022-12-18T03:38:11;44.63;;;17.75;;
71303;SDS011;59091;47.446;19.148;2022-12-18T03:43:23;44.90;;;17.92;;
71303;SDS011;59091;47.446;19.148;2022-12-18T03:46:17;41.38;;;16.27;;
71303;SDS011;59091;47.446;19.148;2022-12-18T03:48:48;41.00;;;16.27;;
71303;SDS011;59091;47.446;19.148;2022-12-18T03:51:26;48.67;;;18.10;;
71303;SDS011;59091;47.446;19.148;2022-12-18T03:54:11;39.42;;;16.13;;
71303;SDS011;59091;47.446;19.148;2022-12-18T03:56:40;43.47;;;16.38;;
71303;SDS011;59091;47.446;19.148;2022-12-18T03:59:09;40.03;;;16.30;;
71303;SDS011;59091;47.446;19.148;2022-12-18T04:01:40;40.13;;;16.63;;
71303;SDS011;59091;47.446;19.148;2022-12-18T04:04:10;41.15;;;16.30;;
71303;SDS011;59091;47.446;19.148;2022-12-18T04:06:39;37.80;;;16.52;;
71303;SDS011;59091;47.446;19.148;2022-12-18T04:09:06;45.50;;;16.20;;
71303;SDS011;59091;47.446;19.148;2022-12-18T04:11:32;40.08;;;15.88;;
71303;SDS011;59091;47.446;19.148;2022-12-18T04:13:57;50.15;;;18.08;;
71303;SDS011;59091;47.446;19.148;2022-12-18T04:16:24;46.45;;;17.35;;
71303;SDS011;59091;47.446;19.148;2022-12-18T04:18:50;37.17;;;16.95;;
71303;SDS011;59091;47.446;19.148;2022-12-18T04:21:16;47.97;;;17.55;;
71303;SDS011;59091;47.446;19.148;2022-12-18T04:23:41;45.80;;;17.55;;
71303;SDS011;59091;47.446;19.148;2022-12-18T04:26:06;45.72;;;17.77;;
71303;SDS011;59091;47.446;19.148;2022-12-18T04:28:32;40.78;;;16.88;;
71303;SDS011;59091;47.446;19.148;2022-12-18T04:30:57;42.85;;;16.75;;
71303;SDS011;59091;47.446;19.148;2022-12-18T04:33:22;40.80;;;16.23;;
71303;SDS011;59091;47.446;19.148;2022-12-18T04:35:48;46.33;;;17.25;;
71303;SDS011;59091;47.446;19.148;2022-12-18T04:38:13;52.15;;;18.70;;
71303;SDS011;59091;47.446;19.148;2022-12-18T04:40:38;44.33;;;17.48;;
71303;SDS011;59091;47.446;19.148;2022-12-18T04:43:04;48.20;;;17.48;;
71303;SDS011;59091;47.446;19.148;2022-12-18T04:45:30;45.53;;;17.67;;
71303;SDS011;59091;47.446;19.148;2022-12-18T04:48:00;42.70;;;17.08;;
71303;SDS011;59091;47.446;19.148;2022-12-18T04:50:26;47.15;;;17.42;;
71303;SDS011;59091;47.446;19.148;2022-12-18T04:52:52;53.28;;;18.55;;
71303;SDS011;59091;47.446;19.148;2022-12-18T04:55:18;50.00;;;18.42;;
71303;SDS011;59091;47.446;19.148;2022-12-18T04:57:43;38.88;;;16.58;;
71303;SDS011;59091;47.446;19.148;2022-12-18T05:00:09;39.90;;;16.75;;
71303;SDS011;59091;47.446;19.148;2022-12-18T05:02:35;48.45;;;18.23;;
71303;SDS011;59091;47.446;19.148;2022-12-18T05:05:00;46.95;;;18.60;;
71303;SDS011;59091;47.446;19.148;2022-12-18T05:07:26;46.00;;;18.75;;
71303;SDS011;59091;47.446;19.148;2022-12-18T05:09:51;51.13;;;19.42;;
71303;SDS011;59091;47.446;19.148;2022-12-18T05:12:16;47.05;;;19.75;;
71303;SDS011;59091;47.446;19.148;2022-12-18T05:14:42;46.83;;;17.38;;
71303;SDS011;59091;47.446;19.148;2022-12-18T05:17:07;42.85;;;18.08;;
71303;SDS011;59091;47.446;19.148;2022-12-18T05:19:32;46.00;;;19.00;;
71303;SDS011;59091;47.446;19.148;2022-12-18T05:21:58;44.40;;;17.88;;
71303;SDS011;59091;47.446;19.148;2022-12-18T05:24:23;46.00;;;18.35;;
71303;SDS011;59091;47.446;19.148;2022-12-18T05:26:48;44.83;;;18.50;;
71303;SDS011;59091;47.446;19.148;2022-12-18T05:29:14;47.85;;;18.73;;
71303;SDS011;59091;47.446;19.148;2022-12-18T05:31:39;49.63;;;17.20;;
71303;SDS011;59091;47.446;19.148;2022-12-18T05:34:05;44.13;;;17.02;;
71303;SDS011;59091;47.446;19.148;2022-12-18T05:36:30;46.03;;;17.55;;
71303;SDS011;59091;47.446;19.148;2022-12-18T05:38:56;53.83;;;19.15;;
71303;SDS011;59091;47.446;19.148;2022-12-18T05:41:21;46.58;;;18.65;;
71303;SDS011;59091;47.446;19.148;2022-12-18T05:43:47;44.50;;;17.35;;
71303;SDS011;59091;47.446;19.148;2022-12-18T05:46:14;44.03;;;18.05;;
71303;SDS011;59091;47.446;19.148;2022-12-18T05:48:41;41.42;;;17.83;;
71303;SDS011;59091;47.446;19.148;2022-12-18T05:51:09;44.05;;;16.98;;
71303;SDS011;59091;47.446;19.148;2022-12-18T05:53:36;47.40;;;16.95;;
71303;SDS011;59091;47.446;19.148;2022-12-18T05:56:03;48.40;;;17.58;;
71303;SDS011;59091;47.446;19.148;2022-12-18T05:58:30;40.63;;;16.40;;
71303;SDS011;59091;47.446;19.148;2022-12-18T06:00:56;36.40;;;16.67;;
71303;SDS011;59091;47.446;19.148;2022-12-18T06:03:21;43.25;;;17.35;;
71303;SDS011;59091;47.446;19.148;2022-12-18T06:05:47;45.90;;;18.38;;
71303;SDS011;59091;47.446;19.148;2022-12-18T06:08:12;43.72;;;16.63;;
71303;SDS011;59091;47.446;19.148;2022-12-18T06:10:38;45.85;;;17.20;;
71303;SDS011;59091;47.446;19.148;2022-12-18T06:13:04;43.58;;;17.58;;
71303;SDS011;59091;47.446;19.148;2022-12-18T06:15:29;45.30;;;18.08;;
71303;SDS011;59091;47.446;19.148;2022-12-18T06:17:55;50.72;;;18.50;;
71303;SDS011;59091;47.446;19.148;2022-12-18T06:20:20;42.42;;;17.05;;
71303;SDS011;59091;47.446;19.148;2022-12-18T06:22:46;43.83;;;16.52;;
71303;SDS011;59091;47.446;19.148;2022-12-18T06:25:11;43.80;;;16.45;;
71303;SDS011;59091;47.446;19.148;2022-12-18T06:27:37;43.45;;;17.50;;
71303;SDS011;59091;47.446;19.148;2022-12-18T06:30:03;46.58;;;17.55;;
71303;SDS011;59091;47.446;19.148;2022-12-18T06:32:29;47.08;;;17.70;;
71303;SDS011;59091;47.446;19.148;2022-12-18T06:34:55;41.75;;;17.10;;
71303;SDS011;59091;47.446;19.148;2022-12-18T06:37:21;47.05;;;17.98;;
71303;SDS011;59091;47.446;19.148;2022-12-18T06:39:49;46.72;;;17.88;;
71303;SDS011;59091;47.446;19.148;2022-12-18T06:42:15;40.38;;;18.55;;
71303;SDS011;59091;47.446;19.148;2022-12-18T06:44:40;42.70;;;18.45;;
71303;SDS011;59091;47.446;19.148;2022-12-18T06:47:05;46.58;;;18.17;;
71303;SDS011;59091;47.446;19.148;2022-12-18T06:49:31;47.42;;;18.30;;
71303;SDS011;59091;47.446;19.148;2022-12-18T06:51:56;43.10;;;18.90;;
71303;SDS011;59091;47.446;19.148;2022-12-18T06:54:21;50.28;;;19.23;;
71303;SDS011;59091;47.446;19.148;2022-12-18T06:56:47;44.78;;;18.75;;
71303;SDS011;59091;47.446;19.148;2022-12-18T06:59:13;46.40;;;18.88;;
71303;SDS011;59091;47.446;19.148;2022-12-18T07:01:38;48.30;;;18.50;;
71303;SDS011;59091;47.446;19.148;2022-12-18T07:04:03;44.50;;;20.48;;
71303;SDS011;59091;47.446;19.148;2022-12-18T07:06:29;44.00;;;19.00;;
71303;SDS011;59091;47.446;19.148;2022-12-18T07:08:55;50.53;;;20.27;;
71303;SDS011;59091;47.446;19.148;2022-12-18T07:11:20;45.92;;;19.95;;
71303;SDS011;59091;47.446;19.148;2022-12-18T07:13:46;53.55;;;21.15;;
71303;SDS011;59091;47.446;19.148;2022-12-18T07:16:13;50.65;;;20.95;;
71303;SDS011;59091;47.446;19.148;2022-12-18T07:18:40;43.90;;;19.08;;
71303;SDS011;59091;47.446;19.148;2022-12-18T07:21:07;50.35;;;20.25;;
71303;SDS011;59091;47.446;19.148;2022-12-18T07:23:34;50.78;;;20.45;;
71303;SDS011;59091;47.446;19.148;2022-12-18T07:26:01;49.35;;;21.08;;
71303;SDS011;59091;47.446;19.148;2022-12-18T07:28:30;54.92;;;20.05;;
71303;SDS011;59091;47.446;19.148;2022-12-18T07:30:56;54.60;;;21.92;;
71303;SDS011;59091;47.446;19.148;2022-12-18T07:33:22;57.55;;;23.42;;
71303;SDS011;59091;47.446;19.148;2022-12-18T07:35:47;67.38;;;25.77;;
71303;SDS011;59091;47.446;19.148;2022-12-18T07:38:12;64.78;;;26.58;;
71303;SDS011;59091;47.446;19.148;2022-12-18T07:40:38;74.45;;;27.90;;
71303;SDS011;59091;47.446;19.148;2022-12-18T07:43:03;63.97;;;26.52;;
71303;SDS011;59091;47.446;19.148;2022-12-18T07:45:29;70.55;;;25.95;;
71303;SDS011;59091;47.446;19.148;2022-12-18T07:47:54;62.97;;;25.55;;
71303;SDS011;59091;47.446;19.148;2022-12-18T07:50:19;67.70;;;26.15;;
71303;SDS011;59091;47.446;19.148;2022-12-18T07:52:45;65.75;;;26.77;;
71303;SDS011;59091;47.446;19.148;2022-12-18T07:55:10;65.72;;;27.02;;
71303;SDS011;59091;47.446;19.148;2022-12-18T07:57:36;66.72;;;27.80;;
71303;SDS011;59091;47.446;19.148;2022-12-18T08:00:01;64.30;;;26.00;;
71303;SDS011;59091;47.446;19.148;2022-12-18T08:02:26;60.33;;;24.92;;
71303;SDS011;59091;47.446;19.148;2022-12-18T08:04:55;59.78;;;24.45;;
71303;SDS011;59091;47.446;19.148;2022-12-18T08:07:21;75.72;;;26.48;;
71303;SDS011;59091;47.446;19.148;2022-12-18T08:09:46;60.13;;;25.02;;
71303;SDS011;59091;47.446;19.148;2022-12-18T08:12:11;61.67;;;24.33;;
71303;SDS011;59091;47.446;19.148;2022-12-18T08:14:37;73.28;;;25.77;;
71303;SDS011;59091;47.446;19.148;2022-12-18T08:17:02;66.75;;;24.00;;
71303;SDS011;59091;47.446;19.148;2022-12-18T08:19:28;65.18;;;24.77;;
71303;SDS011;59091;47.446;19.148;2022-12-18T08:21:53;56.97;;;23.27;;
71303;SDS011;59091;47.446;19.148;2022-12-18T08:24:18;69.50;;;26.10;;
71303;SDS011;59091;47.446;19.148;2022-12-18T08:26:44;51.67;;;21.75;;
71303;SDS011;59091;47.446;19.148;2022-12-18T08:29:09;55.78;;;20.48;;
71303;SDS011;59091;47.446;19.148;2022-12-18T08:31:35;56.25;;;20.92;;
71303;SDS011;59091;47.446;19.148;2022-12-18T08:34:01;57.25;;;20.70;;
71303;SDS011;59091;47.446;19.148;2022-12-18T08:36:26;54.50;;;21.08;;
71303;SDS011;59091;47.446;19.148;2022-12-18T08:38:52;49.63;;;20.63;;
71303;SDS011;59091;47.446;19.148;2022-12-18T08:41:18;56.50;;;22.23;;
71303;SDS011;59091;47.446;19.148;2022-12-18T08:43:43;61.35;;;22.65;;
71303;SDS011;59091;47.446;19.148;2022-12-18T08:46:31;48.55;;;20.30;;
71303;SDS011;59091;47.446;19.148;2022-12-18T08:48:59;51.70;;;19.52;;
71303;SDS011;59091;47.446;19.148;2022-12-18T08:51:24;51.35;;;20.95;;
71303;SDS011;59091;47.446;19.148;2022-12-18T08:53:50;48.80;;;20.73;;
71303;SDS011;59091;47.446;19.148;2022-12-18T08:56:15;50.17;;;20.25;;
71303;SDS011;59091;47.446;19.148;2022-12-18T08:58:41;46.65;;;19.52;;
71303;SDS011;59091;47.446;19.148;2022-12-18T09:01:08;52.65;;;20.65;;
71303;SDS011;59091;47.446;19.148;2022-12-18T09:03:35;52.72;;;21.15;;
71303;SDS011;59091;47.446;19.148;2022-12-18T09:06:01;52.03;;;19.75;;
71303;SDS011;59091;47.446;19.148;2022-12-18T09:08:27;49.20;;;20.45;;
71303;SDS011;59091;47.446;19.148;2022-12-18T09:10:53;48.72;;;21.05;;
71303;SDS011;59091;47.446;19.148;2022-12-18T09:13:19;50.40;;;20.88;;
71303;SDS011;59091;47.446;19.148;2022-12-18T09:15:45;44.65;;;20.10;;
71303;SDS011;59091;47.446;19.148;2022-12-18T09:18:13;46.40;;;20.98;;
71303;SDS011;59091;47.446;19.148;2022-12-18T09:20:40;53.13;;;20.25;;
71303;SDS011;59091;47.446;19.148;2022-12-18T09:23:05;48.65;;;18.95;;
71303;SDS011;59091;47.446;19.148;2022-12-18T09:25:31;45.97;;;19.33;;
71303;SDS011;59091;47.446;19.148;2022-12-18T09:28:19;50.70;;;21.40;;
71303;SDS011;59091;47.446;19.148;2022-12-18T09:30:46;52.80;;;20.98;;
71303;SDS011;59091;47.446;19.148;2022-12-18T09:33:12;53.05;;;21.05;;
71303;SDS011;59091;47.446;19.148;2022-12-18T09:35:39;45.47;;;20.73;;
71303;SDS011;59091;47.446;19.148;2022-12-18T09:38:05;50.17;;;21.17;;
71303;SDS011;59091;47.446;19.148;2022-12-18T09:40:35;48.63;;;20.95;;
71303;SDS011;59091;47.446;19.148;2022-12-18T09:43:05;46.83;;;20.40;;
71303;SDS011;59091;47.446;19.148;2022-12-18T09:45:39;53.28;;;21.17;;
71303;SDS011;59091;47.446;19.148;2022-12-18T09:48:30;50.40;;;21.58;;
71303;SDS011;59091;47.446;19.148;2022-12-18T09:51:00;46.80;;;20.38;;
71303;SDS011;59091;47.446;19.148;2022-12-18T09:53:31;55.75;;;21.88;;
71303;SDS011;59091;47.446;19.148;2022-12-18T09:56:00;53.80;;;22.13;;
71303;SDS011;59091;47.446;19.148;2022-12-18T09:58:34;52.60;;;22.35;;
71303;SDS011;59091;47.446;19.148;2022-12-18T10:01:22;58.05;;;22.00;;
71303;SDS011;59091;47.446;19.148;2022-12-18T10:03:48;51.08;;;21.77;;
71303;SDS011;59091;47.446;19.148;2022-12-18T10:20:10;50.90;;;21.65;;
71303;SDS011;59091;47.446;19.148;2022-12-18T10:22:43;55.78;;;23.02;;
71303;SDS011;59091;47.446;19.148;2022-12-18T10:25:30;56.47;;;22.27;;
71303;SDS011;59091;47.446;19.148;2022-12-18T10:28:00;53.17;;;21.33;;
71303;SDS011;59091;47.446;19.148;2022-12-18T10:30:35;49.63;;;21.75;;
71303;SDS011;59091;47.446;19.148;2022-12-18T10:33:01;54.85;;;22.25;;
71303;SDS011;59091;47.446;19.148;2022-12-18T10:35:28;56.28;;;22.90;;
71303;SDS011;59091;47.446;19.148;2022-12-18T10:43:28;55.75;;;22.13;;
71303;SDS011;59091;47.446;19.148;2022-12-18T10:46:13;51.53;;;22.77;;
71303;SDS011;59091;47.446;19.148;2022-12-18T10:53:55;55.55;;;24.42;;
71303;SDS011;59091;47.446;19.148;2022-12-18T10:56:26;57.28;;;22.70;;
71303;SDS011;59091;47.446;19.148;2022-12-18T10:58:58;61.42;;;24.48;;
71303;SDS011;59091;47.446;19.148;2022-12-18T11:01:26;44.53;;;23.27;;
71303;SDS011;59091;47.446;19.148;2022-12-18T11:06:23;58.10;;;24.30;;
71303;SDS011;59091;47.446;19.148;2022-12-18T11:11:48;57.30;;;24.30;;
71303;SDS011;59091;47.446;19.148;2022-12-18T11:14:52;51.15;;;21.25;;
71303;SDS011;59091;47.446;19.148;2022-12-18T11:20:04;52.95;;;22.27;;
71303;SDS011;59091;47.446;19.148;2022-12-18T11:22:35;51.67;;;22.33;;
71303;SDS011;59091;47.446;19.148;2022-12-18T11:25:02;58.30;;;23.10;;
71303;SDS011;59091;47.446;19.148;2022-12-18T11:27:31;66.93;;;24.10;;
71303;SDS011;59091;47.446;19.148;2022-12-18T11:30:07;51.13;;;23.02;;
71303;SDS011;59091;47.446;19.148;2022-12-18T11:32:37;52.97;;;22.42;;
71303;SDS011;59091;47.446;19.148;2022-12-18T11:40:43;54.70;;;22.45;;
71303;SDS011;59091;47.446;19.148;2022-12-18T11:43:14;46.10;;;21.45;;
71303;SDS011;59091;47.446;19.148;2022-12-18T11:45:48;53.97;;;21.02;;
71303;SDS011;59091;47.446;19.148;2022-12-18T11:50:51;48.17;;;20.30;;
71303;SDS011;59091;47.446;19.148;2022-12-18T11:53:21;41.45;;;19.30;;
71303;SDS011;59091;47.446;19.148;2022-12-18T11:55:49;46.45;;;20.73;;
71303;SDS011;59091;47.446;19.148;2022-12-18T11:58:38;52.58;;;20.83;;
71303;SDS011;59091;47.446;19.148;2022-12-18T12:03:45;45.63;;;19.77;;
71303;SDS011;59091;47.446;19.148;2022-12-18T12:09:04;44.13;;;19.70;;
71303;SDS011;59091;47.446;19.148;2022-12-18T12:15:17;42.40;;;18.33;;
71303;SDS011;59091;47.446;19.148;2022-12-18T12:20:34;44.05;;;18.73;;
71303;SDS011;59091;47.446;19.148;2022-12-18T12:23:18;40.85;;;19.45;;
71303;SDS011;59091;47.446;19.148;2022-12-18T12:26:20;50.67;;;20.17;;
71303;SDS011;59091;47.446;19.148;2022-12-18T12:35:25;53.05;;;21.55;;
71303;SDS011;59091;47.446;19.148;2022-12-18T12:38:33;52.88;;;21.98;;
71303;SDS011;59091;47.446;19.148;2022-12-18T12:41:00;44.50;;;20.50;;
71303;SDS011;59091;47.446;19.148;2022-12-18T12:46:05;50.47;;;21.92;;
71303;SDS011;59091;47.446;19.148;2022-12-18T12:48:46;43.53;;;20.67;;
71303;SDS011;59091;47.446;19.148;2022-12-18T12:51:18;52.40;;;21.92;;
71303;SDS011;59091;47.446;19.148;2022-12-18T12:53:46;48.58;;;20.63;;
71303;SDS011;59091;47.446;19.148;2022-12-18T12:56:14;48.10;;;20.27;;
71303;SDS011;59091;47.446;19.148;2022-12-18T12:58:45;46.95;;;21.33;;
71303;SDS011;59091;47.446;19.148;2022-12-18T13:06:27;53.15;;;23.05;;
71303;SDS011;59091;47.446;19.148;2022-12-18T13:09:15;51.17;;;23.15;;
71303;SDS011;59091;47.446;19.148;2022-12-18T13:11:44;51.58;;;21.80;;
71303;SDS011;59091;47.446;19.148;2022-12-18T13:17:15;42.47;;;18.58;;
71303;SDS011;59091;47.446;19.148;2022-12-18T13:19:41;46.90;;;18.67;;
71303;SDS011;59091;47.446;19.148;2022-12-18T13:22:20;46.50;;;18.83;;
71303;SDS011;59091;47.446;19.148;2022-12-18T13:24:46;41.30;;;18.90;;
71303;SDS011;59091;47.446;19.148;2022-12-18T13:38:22;44.45;;;19.10;;
71303;SDS011;59091;47.446;19.148;2022-12-18T13:41:00;41.30;;;18.40;;
71303;SDS011;59091;47.446;19.148;2022-12-18T13:43:39;31.40;;;12.98;;
71303;SDS011;59091;47.446;19.148;2022-12-18T13:49:51;29.35;;;12.40;;
71303;SDS011;59091;47.446;19.148;2022-12-18T13:52:00;32.63;;;14.10;;
71303;SDS011;59091;47.446;19.148;2022-12-18T13:54:33;41.67;;;16.42;;
71303;SDS011;59091;47.446;19.148;2022-12-18T13:57:02;46.33;;;18.65;;
71303;SDS011;59091;47.446;19.148;2022-12-18T14:02:00;62.45;;;25.02;;
71303;SDS011;59091;47.446;19.148;2022-12-18T14:04:35;67.63;;;25.92;;
71303;SDS011;59091;47.446;19.148;2022-12-18T14:09:31;61.92;;;23.10;;
71303;SDS011;59091;47.446;19.148;2022-12-18T14:12:00;57.63;;;22.10;;
71303;SDS011;59091;47.446;19.148;2022-12-18T14:14:46;56.35;;;22.45;;
71303;SDS011;59091;47.446;19.148;2022-12-18T14:17:13;58.83;;;23.38;;
71303;SDS011;59091;47.446;19.148;2022-12-18T14:19:43;51.03;;;22.23;;
71303;SDS011;59091;47.446;19.148;2022-12-18T14:22:15;56.30;;;22.65;;
71303;SDS011;59091;47.446;19.148;2022-12-18T14:24:43;59.42;;;23.05;;
71303;SDS011;59091;47.446;19.148;2022-12-18T14:27:13;56.03;;;22.42;;
71303;SDS011;59091;47.446;19.148;2022-12-18T14:29:46;52.35;;;21.83;;
71303;SDS011;59091;47.446;19.148;2022-12-18T14:32:15;54.22;;;22.77;;
71303;SDS011;59091;47.446;19.148;2022-12-18T14:34:48;52.67;;;22.20;;
71303;SDS011;59091;47.446;19.148;2022-12-18T14:37:16;55.25;;;23.05;;
71303;SDS011;59091;47.446;19.148;2022-12-18T14:39:55;56.70;;;23.23;;
71303;SDS011;59091;47.446;19.148;2022-12-18T14:42:22;53.53;;;22.20;;
71303;SDS011;59091;47.446;19.148;2022-12-18T14:44:47;54.63;;;23.35;;
71303;SDS011;59091;47.446;19.148;2022-12-18T14:47:16;51.03;;;22.05;;
71303;SDS011;59091;47.446;19.148;2022-12-18T14:49:42;59.30;;;23.65;;
71303;SDS011;59091;47.446;19.148;2022-12-18T14:52:17;51.70;;;22.73;;
71303;SDS011;59091;47.446;19.148;2022-12-18T14:54:52;52.90;;;22.60;;
71303;SDS011;59091;47.446;19.148;2022-12-18T14:57:22;54.60;;;22.98;;
71303;SDS011;59091;47.446;19.148;2022-12-18T14:59:51;53.38;;;23.58;;
71303;SDS011;59091;47.446;19.148;2022-12-18T15:02:18;54.40;;;22.73;;
71303;SDS011;59091;47.446;19.148;2022-12-18T15:05:03;56.47;;;20.88;;
71303;SDS011;59091;47.446;19.148;2022-12-18T15:07:44;54.38;;;22.33;;
71303;SDS011;59091;47.446;19.148;2022-12-18T15:20:38;66.20;;;28.35;;
71303;SDS011;59091;47.446;19.148;2022-12-18T15:25:59;59.95;;;25.17;;
71303;SDS011;59091;47.446;19.148;2022-12-18T15:28:43;64.22;;;25.67;;
71303;SDS011;59091;47.446;19.148;2022-12-18T15:33:38;59.67;;;27.23;;
71303;SDS011;59091;47.446;19.148;2022-12-18T15:36:05;81.15;;;31.75;;
71303;SDS011;59091;47.446;19.148;2022-12-18T15:38:34;76.32;;;31.77;;
71303;SDS011;59091;47.446;19.148;2022-12-18T15:41:00;79.90;;;34.10;;
71303;SDS011;59091;47.446;19.148;2022-12-18T15:43:26;80.38;;;32.78;;
71303;SDS011;59091;47.446;19.148;2022-12-18T15:46:02;76.80;;;31.88;;
71303;SDS011;59091;47.446;19.148;2022-12-18T15:48:29;76.90;;;30.40;;
71303;SDS011;59091;47.446;19.148;2022-12-18T15:50:56;71.47;;;30.98;;
71303;SDS011;59091;47.446;19.148;2022-12-18T15:53:23;78.40;;;32.53;;
71303;SDS011;59091;47.446;19.148;2022-12-18T15:55:52;76.97;;;31.05;;
71303;SDS011;59091;47.446;19.148;2022-12-18T15:58:36;75.03;;;28.40;;
71303;SDS011;59091;47.446;19.148;2022-12-18T16:01:02;70.65;;;29.17;;
71303;SDS011;59091;47.446;19.148;2022-12-18T16:03:27;74.28;;;29.73;;
71303;SDS011;59091;47.446;19.148;2022-12-18T16:05:53;68.68;;;28.52;;
71303;SDS011;59091;47.446;19.148;2022-12-18T16:08:18;69.70;;;28.33;;
71303;SDS011;59091;47.446;19.148;2022-12-18T16:10:43;68.32;;;28.83;;
71303;SDS011;59091;47.446;19.148;2022-12-18T16:13:10;70.53;;;27.27;;
71303;SDS011;59091;47.446;19.148;2022-12-18T16:15:35;67.35;;;29.77;;
71303;SDS011;59091;47.446;19.148;2022-12-18T16:18:01;75.15;;;29.48;;
71303;SDS011;59091;47.446;19.148;2022-12-18T16:20:26;79.47;;;32.22;;
71303;SDS011;59091;47.446;19.148;2022-12-18T16:22:51;96.97;;;34.30;;
71303;SDS011;59091;47.446;19.148;2022-12-18T16:25:22;82.95;;;32.38;;
71303;SDS011;59091;47.446;19.148;2022-12-18T16:27:49;76.25;;;31.15;;
71303;SDS011;59091;47.446;19.148;2022-12-18T16:30:17;85.05;;;31.02;;
71303;SDS011;59091;47.446;19.148;2022-12-18T16:32:44;74.78;;;29.25;;